CDT,Max TemperatureF,Mean TemperatureF,Min TemperatureF,Max Dew PointF,MeanDew PointF,Min DewpointF,Max Humidity, Mean Humidity, Min Humidity, Max Sea Level PressureIn, Mean Sea Level PressureIn, Min Sea Level PressureIn, Max VisibilityMiles, Mean VisibilityMiles, Min VisibilityMiles, Max Wind SpeedMPH, Mean Wind SpeedMPH, Max Gust SpeedMPH,PrecipitationIn, CloudCover, Events, WindDirDegrees
2013-3-1,32,29,26,27,24,22,90,83,75,30.16,30.09,30.03,10,10,4,17,10,23,0.00,8,Rain-Snow,344
2013-3-2,30,24,19,24,19,14,92,75,61,30.18,30.15,30.12,10,9,3,12,8,17,0.00,7,Snow,320
2013-3-3,33,24,15,21,16,12,90,72,42,30.16,30.12,30.08,10,10,10,12,5,,0.00,0,,291
2013-3-4,34,28,21,28,21,16,87,73,60,30.12,30.05,29.96,10,10,10,16,8,21,0.00,5,Rain-Snow,97
2013-3-5,32,30,28,32,30,28,100,95,87,29.95,29.85,29.76,10,4,0,14,10,20,0.13,8,Rain-Snow,45
2013-3-6,32,30,27,29,26,25,96,86,80,30.31,30.19,29.95,10,10,7,16,10,24,0.13,8,,305
2013-3-7,34,28,21,28,25,21,99,84,67,30.42,30.38,30.31,10,9,1,7,5,,0.05,6,,262
2013-3-8,37,27,17,28,24,16,100,83,64,30.49,30.42,30.31,10,8,0,12,4,,0.00,1,Fog,110
2013-3-9,41,36,30,35,31,26,88,81,72,30.31,30.09,29.85,10,10,7,15,9,17,0.00,5,Rain,125
2013-3-10,56,46,37,49,43,33,99,86,69,29.87,29.75,29.62,10,9,4,23,8,30,0.27,8,Rain,146
2013-3-11,46,40,32,47,37,29,99,95,88,29.84,29.68,29.59,10,7,1,21,12,28,0.05,8,Rain-Snow,231
2013-3-12,38,33,28,32,25,19,96,77,62,30.05,29.95,29.85,10,10,1,23,16,33,0.00,7,Snow,262
2013-3-13,33,28,22,22,18,14,87,66,44,30.35,30.23,30.05,10,10,3,21,13,28,0.00,4,Snow,292
2013-3-14,37,30,22,32,25,20,98,85,56,30.35,30.26,30.09,10,9,1,12,5,,0.01,4,Rain-Snow,209
2013-3-15,46,36,28,39,34,28,100,89,75,30.08,29.91,29.70,10,8,0,14,6,,0.00,4,Fog,162
2013-3-16,38,34,31,35,30,25,100,87,72,30.11,29.90,29.66,10,7,1,16,9,22,0.00,8,Thunderstorm,8
2013-3-17,35,32,29,26,23,21,80,71,60,30.19,30.11,29.97,10,10,10,20,9,28,0.00,6,,57
2013-3-18,36,30,24,34,28,15,99,88,67,29.96,29.75,29.64,10,7,1,29,14,36,0.03,8,Rain-Snow,43
2013-3-19,36,28,19,19,15,10,75,61,45,30.11,29.99,29.85,10,10,10,30,22,38,0.00,1,,268
2013-3-20,27,22,17,18,11,6,86,61,47,30.12,30.07,30.04,10,10,3,23,14,30,0.00,5,Snow,288
2013-3-21,34,23,13,17,11,7,80,60,40,30.07,30.04,30.01,10,10,10,14,7,18,0.00,1,,301
2013-3-22,40,28,16,21,17,14,91,64,40,30.07,30.05,30.00,10,10,10,12,3,16,0.00,0,,293
2013-3-23,44,34,23,26,22,19,86,65,43,30.12,30.06,30.00,10,10,10,17,5,23,0.00,1,,44
2013-3-24,34,31,28,31,27,23,97,83,65,30.00,29.76,29.60,10,7,1,22,13,30,0.00,7,Rain-Snow,35
2013-3-25,35,32,29,30,27,23,96,83,71,30.07,29.84,29.66,10,9,2,16,11,25,0.02,8,Rain-Snow,331
2013-3-26,39,34,30,30,27,24,87,76,59,30.27,30.18,30.07,10,10,10,15,8,21,0.00,8,,282
2013-3-27,42,34,27,29,24,18,93,67,42,30.34,30.31,30.27,10,10,10,14,6,17,0.00,6,,274
2013-3-28,49,36,24,33,26,22,94,69,39,30.37,30.33,30.28,10,10,10,12,4,16,0.00,1,,265
2013-3-29,54,42,31,32,29,22,94,64,36,30.33,30.28,30.22,10,9,5,8,1,,0.00,4,,26
2013-3-30,58,42,27,40,32,22,86,64,41,30.24,30.08,29.88,10,10,10,18,5,23,0.00,2,,166
2013-3-31,60,50,38,44,37,26,99,68,38,29.90,29.81,29.74,10,8,2,25,12,33,0.00,4,,271